Enterprise, Oregon
Current Conditions -  °F | °C
As of 4:55 AM on Thursday 23 Oct 2014 (Local Time) from KLGD Reporting Station
Broken Clouds Broken Clouds  
Wind Chill: 55°   Ceiling: 12000
Heat Index: 55°   Visibility: 10mi
Dew Point: 36°   Wind: 13mph
Humidity: 47%   Direction: 170°S
Pressure: 29.84"   Gusts: 24mph
Location:  45.43°N, 117.28°W
Report Text: KLGD 231155Z AUTO 17011G21KT 10SM SCT095 BKN120 13/02 A2984 RMK AO1 10150 20130 57007
Loading
Personal Weather Stations






























Interactive Weather Map
Tropical Storm Tracking
New forecast layout! Learn more

10-Day Weather Forecast

Advertisements
Track Severe Weather on mobile